sensor_id;sensor_type;location;lat;lon;timestamp;P1;durP1;ratioP1;P2;durP2;ratioP2
15526;SDS011;7865;50.918;4.510;2022-07-29T00:00:18;4.03;;;1.60;;
15526;SDS011;7865;50.918;4.510;2022-07-29T00:05:20;2.97;;;1.38;;
15526;SDS011;7865;50.918;4.510;2022-07-29T00:10:22;4.00;;;1.50;;
15526;SDS011;7865;50.918;4.510;2022-07-29T00:15:24;4.22;;;1.80;;
15526;SDS011;7865;50.918;4.510;2022-07-29T00:20:27;7.28;;;2.20;;
15526;SDS011;7865;50.918;4.510;2022-07-29T00:25:29;5.03;;;1.70;;
15526;SDS011;7865;50.918;4.510;2022-07-29T00:30:34;4.10;;;1.70;;
15526;SDS011;7865;50.918;4.510;2022-07-29T00:35:36;2.47;;;1.60;;
15526;SDS011;7865;50.918;4.510;2022-07-29T00:40:47;5.30;;;1.70;;
15526;SDS011;7865;50.918;4.510;2022-07-29T00:45:50;5.43;;;1.70;;
15526;SDS011;7865;50.918;4.510;2022-07-29T00:50:52;1.93;;;1.53;;
15526;SDS011;7865;50.918;4.510;2022-07-29T00:55:54;5.07;;;1.87;;
15526;SDS011;7865;50.918;4.510;2022-07-29T01:00:57;6.97;;;1.47;;
15526;SDS011;7865;50.918;4.510;2022-07-29T01:05:59;5.40;;;1.77;;
15526;SDS011;7865;50.918;4.510;2022-07-29T01:11:02;2.60;;;1.60;;
15526;SDS011;7865;50.918;4.510;2022-07-29T01:16:09;3.83;;;1.60;;
15526;SDS011;7865;50.918;4.510;2022-07-29T01:21:23;5.65;;;1.63;;
15526;SDS011;7865;50.918;4.510;2022-07-29T01:31:54;3.17;;;1.70;;
15526;SDS011;7865;50.918;4.510;2022-07-29T01:37:06;5.07;;;1.80;;
15526;SDS011;7865;50.918;4.510;2022-07-29T01:42:23;2.20;;;1.77;;
15526;SDS011;7865;50.918;4.510;2022-07-29T01:47:38;3.53;;;1.83;;
15526;SDS011;7865;50.918;4.510;2022-07-29T01:52:56;3.53;;;1.47;;
15526;SDS011;7865;50.918;4.510;2022-07-29T01:58:00;3.50;;;1.90;;
15526;SDS011;7865;50.918;4.510;2022-07-29T02:03:07;4.00;;;1.90;;
15526;SDS011;7865;50.918;4.510;2022-07-29T02:08:12;3.93;;;2.00;;
15526;SDS011;7865;50.918;4.510;2022-07-29T02:13:16;4.50;;;1.70;;
15526;SDS011;7865;50.918;4.510;2022-07-29T02:18:20;2.97;;;1.70;;
15526;SDS011;7865;50.918;4.510;2022-07-29T02:23:25;7.60;;;2.00;;
15526;SDS011;7865;50.918;4.510;2022-07-29T02:28:28;3.03;;;2.10;;
15526;SDS011;7865;50.918;4.510;2022-07-29T02:33:32;3.47;;;1.90;;
15526;SDS011;7865;50.918;4.510;2022-07-29T02:38:35;3.20;;;1.87;;
15526;SDS011;7865;50.918;4.510;2022-07-29T02:43:57;4.03;;;1.80;;
15526;SDS011;7865;50.918;4.510;2022-07-29T02:54:35;3.03;;;2.00;;
15526;SDS011;7865;50.918;4.510;2022-07-29T02:59:41;5.70;;;2.20;;
15526;SDS011;7865;50.918;4.510;2022-07-29T03:04:44;6.27;;;1.97;;
15526;SDS011;7865;50.918;4.510;2022-07-29T03:09:48;2.80;;;1.80;;
15526;SDS011;7865;50.918;4.510;2022-07-29T03:14:51;5.50;;;2.07;;
15526;SDS011;7865;50.918;4.510;2022-07-29T03:19:55;2.73;;;1.83;;
15526;SDS011;7865;50.918;4.510;2022-07-29T03:24:57;10.57;;;2.37;;
15526;SDS011;7865;50.918;4.510;2022-07-29T03:29:59;3.37;;;2.10;;
15526;SDS011;7865;50.918;4.510;2022-07-29T03:35:01;4.97;;;2.00;;
15526;SDS011;7865;50.918;4.510;2022-07-29T03:40:05;2.90;;;2.03;;
15526;SDS011;7865;50.918;4.510;2022-07-29T03:45:12;4.67;;;2.40;;
15526;SDS011;7865;50.918;4.510;2022-07-29T03:50:17;6.13;;;2.10;;
15526;SDS011;7865;50.918;4.510;2022-07-29T03:55:21;3.43;;;2.23;;
15526;SDS011;7865;50.918;4.510;2022-07-29T04:00:23;2.67;;;2.10;;
15526;SDS011;7865;50.918;4.510;2022-07-29T04:05:27;4.87;;;2.23;;
15526;SDS011;7865;50.918;4.510;2022-07-29T04:10:29;6.57;;;2.63;;
15526;SDS011;7865;50.918;4.510;2022-07-29T04:15:32;5.97;;;2.63;;
15526;SDS011;7865;50.918;4.510;2022-07-29T04:20:34;4.77;;;2.27;;
15526;SDS011;7865;50.918;4.510;2022-07-29T04:25:37;4.77;;;2.50;;
15526;SDS011;7865;50.918;4.510;2022-07-29T04:30:40;6.67;;;2.57;;
15526;SDS011;7865;50.918;4.510;2022-07-29T04:35:42;5.00;;;2.77;;
15526;SDS011;7865;50.918;4.510;2022-07-29T04:40:51;5.80;;;2.60;;
15526;SDS011;7865;50.918;4.510;2022-07-29T04:45:53;6.20;;;2.77;;
15526;SDS011;7865;50.918;4.510;2022-07-29T04:50:55;3.77;;;2.67;;
15526;SDS011;7865;50.918;4.510;2022-07-29T04:55:58;3.17;;;2.20;;
15526;SDS011;7865;50.918;4.510;2022-07-29T05:01:00;3.17;;;2.73;;
15526;SDS011;7865;50.918;4.510;2022-07-29T05:06:02;3.20;;;2.50;;
15526;SDS011;7865;50.918;4.510;2022-07-29T05:11:04;7.00;;;3.50;;
15526;SDS011;7865;50.918;4.510;2022-07-29T05:16:13;8.97;;;3.30;;
15526;SDS011;7865;50.918;4.510;2022-07-29T05:21:15;3.23;;;2.97;;
15526;SDS011;7865;50.918;4.510;2022-07-29T05:26:17;4.97;;;3.30;;
15526;SDS011;7865;50.918;4.510;2022-07-29T05:31:20;6.63;;;3.23;;
15526;SDS011;7865;50.918;4.510;2022-07-29T05:36:22;3.43;;;3.13;;
15526;SDS011;7865;50.918;4.510;2022-07-29T05:41:24;5.33;;;3.13;;
15526;SDS011;7865;50.918;4.510;2022-07-29T05:46:27;3.85;;;3.45;;
15526;SDS011;7865;50.918;4.510;2022-07-29T05:51:29;5.03;;;2.83;;
15526;SDS011;7865;50.918;4.510;2022-07-29T05:56:31;5.13;;;2.88;;
15526;SDS011;7865;50.918;4.510;2022-07-29T06:01:33;9.50;;;3.35;;
15526;SDS011;7865;50.918;4.510;2022-07-29T06:06:35;6.25;;;2.83;;
15526;SDS011;7865;50.918;4.510;2022-07-29T06:11:37;4.32;;;3.40;;
15526;SDS011;7865;50.918;4.510;2022-07-29T06:16:40;5.32;;;2.88;;
15526;SDS011;7865;50.918;4.510;2022-07-29T06:21:42;5.55;;;3.25;;
15526;SDS011;7865;50.918;4.510;2022-07-29T06:26:46;6.55;;;3.58;;
15526;SDS011;7865;50.918;4.510;2022-07-29T06:31:48;8.80;;;3.50;;
15526;SDS011;7865;50.918;4.510;2022-07-29T06:36:50;4.97;;;3.10;;
15526;SDS011;7865;50.918;4.510;2022-07-29T06:41:54;5.05;;;3.10;;
15526;SDS011;7865;50.918;4.510;2022-07-29T06:46:59;5.18;;;3.20;;
15526;SDS011;7865;50.918;4.510;2022-07-29T06:52:02;4.63;;;2.75;;
15526;SDS011;7865;50.918;4.510;2022-07-29T06:57:04;4.32;;;2.38;;
15526;SDS011;7865;50.918;4.510;2022-07-29T07:02:06;3.58;;;2.47;;
15526;SDS011;7865;50.918;4.510;2022-07-29T07:07:08;3.30;;;2.60;;
15526;SDS011;7865;50.918;4.510;2022-07-29T07:12:10;6.22;;;3.17;;
15526;SDS011;7865;50.918;4.510;2022-07-29T07:17:12;7.53;;;2.70;;
15526;SDS011;7865;50.918;4.510;2022-07-29T07:22:14;4.32;;;2.83;;
15526;SDS011;7865;50.918;4.510;2022-07-29T07:27:16;5.20;;;2.40;;
15526;SDS011;7865;50.918;4.510;2022-07-29T07:32:18;8.20;;;3.05;;
15526;SDS011;7865;50.918;4.510;2022-07-29T07:37:21;6.55;;;2.72;;
15526;SDS011;7865;50.918;4.510;2022-07-29T07:42:23;3.75;;;2.80;;
15526;SDS011;7865;50.918;4.510;2022-07-29T07:47:25;3.63;;;2.75;;
15526;SDS011;7865;50.918;4.510;2022-07-29T07:52:29;2.75;;;2.42;;
15526;SDS011;7865;50.918;4.510;2022-07-29T07:57:31;4.28;;;2.58;;
15526;SDS011;7865;50.918;4.510;2022-07-29T08:02:33;3.80;;;2.47;;
15526;SDS011;7865;50.918;4.510;2022-07-29T08:07:35;3.17;;;2.40;;
15526;SDS011;7865;50.918;4.510;2022-07-29T08:12:37;6.85;;;2.08;;
15526;SDS011;7865;50.918;4.510;2022-07-29T08:17:39;5.53;;;2.90;;
15526;SDS011;7865;50.918;4.510;2022-07-29T08:22:43;5.65;;;2.75;;
15526;SDS011;7865;50.918;4.510;2022-07-29T08:27:46;3.47;;;2.40;;
15526;SDS011;7865;50.918;4.510;2022-07-29T08:32:48;4.15;;;2.45;;
15526;SDS011;7865;50.918;4.510;2022-07-29T08:37:56;5.68;;;2.70;;
15526;SDS011;7865;50.918;4.510;2022-07-29T08:42:59;6.10;;;2.90;;
15526;SDS011;7865;50.918;4.510;2022-07-29T08:48:07;4.15;;;2.78;;
15526;SDS011;7865;50.918;4.510;2022-07-29T08:53:11;4.07;;;2.47;;
15526;SDS011;7865;50.918;4.510;2022-07-29T08:58:16;4.00;;;2.60;;
15526;SDS011;7865;50.918;4.510;2022-07-29T09:03:24;3.60;;;2.53;;
15526;SDS011;7865;50.918;4.510;2022-07-29T09:08:31;5.28;;;2.90;;
15526;SDS011;7865;50.918;4.510;2022-07-29T09:13:34;2.08;;;1.83;;
15526;SDS011;7865;50.918;4.510;2022-07-29T09:18:38;5.88;;;2.22;;
15526;SDS011;7865;50.918;4.510;2022-07-29T09:23:58;4.05;;;2.08;;
15526;SDS011;7865;50.918;4.510;2022-07-29T09:29:09;2.97;;;2.13;;
15526;SDS011;7865;50.918;4.510;2022-07-29T09:34:26;7.10;;;2.30;;
15526;SDS011;7865;50.918;4.510;2022-07-29T09:39:34;3.35;;;2.13;;
15526;SDS011;7865;50.918;4.510;2022-07-29T09:49:54;3.45;;;1.45;;
15526;SDS011;7865;50.918;4.510;2022-07-29T09:55:07;4.47;;;2.20;;
15526;SDS011;7865;50.918;4.510;2022-07-29T10:00:19;5.72;;;1.98;;
15526;SDS011;7865;50.918;4.510;2022-07-29T10:05:25;3.40;;;2.13;;
15526;SDS011;7865;50.918;4.510;2022-07-29T10:10:38;5.53;;;2.15;;
15526;SDS011;7865;50.918;4.510;2022-07-29T10:15:43;5.82;;;1.92;;
15526;SDS011;7865;50.918;4.510;2022-07-29T10:20:47;3.90;;;1.80;;
15526;SDS011;7865;50.918;4.510;2022-07-29T10:25:50;4.72;;;2.08;;
15526;SDS011;7865;50.918;4.510;2022-07-29T10:30:52;3.45;;;1.98;;
15526;SDS011;7865;50.918;4.510;2022-07-29T10:46:56;5.03;;;1.83;;
15526;SDS011;7865;50.918;4.510;2022-07-29T11:24:31;3.08;;;1.58;;
15526;SDS011;7865;50.918;4.510;2022-07-29T11:29:38;4.18;;;1.58;;
15526;SDS011;7865;50.918;4.510;2022-07-29T11:34:43;2.97;;;1.73;;
15526;SDS011;7865;50.918;4.510;2022-07-29T11:50:32;8.13;;;1.58;;
15526;SDS011;7865;50.918;4.510;2022-07-29T11:55:37;2.30;;;1.52;;
15526;SDS011;7865;50.918;4.510;2022-07-29T12:00:52;2.30;;;1.90;;
15526;SDS011;7865;50.918;4.510;2022-07-29T12:05:56;21.70;;;2.75;;
15526;SDS011;7865;50.918;4.510;2022-07-29T12:10:58;5.35;;;1.60;;
15526;SDS011;7865;50.918;4.510;2022-07-29T12:16:02;4.63;;;1.65;;
15526;SDS011;7865;50.918;4.510;2022-07-29T12:21:04;4.43;;;2.00;;
15526;SDS011;7865;50.918;4.510;2022-07-29T12:26:07;7.28;;;1.80;;
15526;SDS011;7865;50.918;4.510;2022-07-29T12:31:15;2.35;;;1.63;;
15526;SDS011;7865;50.918;4.510;2022-07-29T12:36:39;5.07;;;1.70;;
15526;SDS011;7865;50.918;4.510;2022-07-29T12:41:43;4.13;;;1.80;;
15526;SDS011;7865;50.918;4.510;2022-07-29T12:46:45;5.18;;;1.92;;
15526;SDS011;7865;50.918;4.510;2022-07-29T12:52:22;5.03;;;2.70;;
15526;SDS011;7865;50.918;4.510;2022-07-29T12:57:46;4.40;;;2.22;;
15526;SDS011;7865;50.918;4.510;2022-07-29T13:02:56;2.40;;;1.90;;
15526;SDS011;7865;50.918;4.510;2022-07-29T13:08:16;12.45;;;2.85;;
15526;SDS011;7865;50.918;4.510;2022-07-29T13:13:23;3.47;;;2.22;;
15526;SDS011;7865;50.918;4.510;2022-07-29T13:18:31;4.47;;;2.28;;
15526;SDS011;7865;50.918;4.510;2022-07-29T13:23:39;6.25;;;2.78;;
15526;SDS011;7865;50.918;4.510;2022-07-29T13:28:41;6.88;;;3.60;;
15526;SDS011;7865;50.918;4.510;2022-07-29T13:33:45;5.38;;;2.50;;
15526;SDS011;7865;50.918;4.510;2022-07-29T13:38:47;6.65;;;2.20;;
15526;SDS011;7865;50.918;4.510;2022-07-29T13:43:49;5.43;;;2.30;;
15526;SDS011;7865;50.918;4.510;2022-07-29T13:48:51;3.83;;;1.85;;
15526;SDS011;7865;50.918;4.510;2022-07-29T13:53:53;2.95;;;1.88;;
15526;SDS011;7865;50.918;4.510;2022-07-29T13:58:55;7.05;;;2.35;;
15526;SDS011;7865;50.918;4.510;2022-07-29T14:03:58;4.43;;;2.40;;
15526;SDS011;7865;50.918;4.510;2022-07-29T14:09:01;6.53;;;2.60;;
15526;SDS011;7865;50.918;4.510;2022-07-29T14:14:08;3.60;;;1.83;;
15526;SDS011;7865;50.918;4.510;2022-07-29T14:19:11;4.18;;;1.73;;
15526;SDS011;7865;50.918;4.510;2022-07-29T14:24:14;2.28;;;1.90;;
15526;SDS011;7865;50.918;4.510;2022-07-29T14:29:18;2.10;;;1.50;;
15526;SDS011;7865;50.918;4.510;2022-07-29T14:34:22;3.42;;;1.95;;
15526;SDS011;7865;50.918;4.510;2022-07-29T14:39:24;6.88;;;1.42;;
15526;SDS011;7865;50.918;4.510;2022-07-29T14:44:32;2.10;;;1.40;;
15526;SDS011;7865;50.918;4.510;2022-07-29T14:49:34;5.15;;;2.42;;
15526;SDS011;7865;50.918;4.510;2022-07-29T14:54:36;5.10;;;2.10;;
15526;SDS011;7865;50.918;4.510;2022-07-29T14:59:38;2.80;;;1.40;;
15526;SDS011;7865;50.918;4.510;2022-07-29T15:04:40;3.67;;;1.80;;
15526;SDS011;7865;50.918;4.510;2022-07-29T15:09:42;4.97;;;1.50;;
15526;SDS011;7865;50.918;4.510;2022-07-29T15:14:50;4.80;;;1.80;;
15526;SDS011;7865;50.918;4.510;2022-07-29T15:19:52;2.80;;;1.60;;
15526;SDS011;7865;50.918;4.510;2022-07-29T15:24:54;2.22;;;1.90;;
15526;SDS011;7865;50.918;4.510;2022-07-29T15:29:56;3.83;;;1.35;;
15526;SDS011;7865;50.918;4.510;2022-07-29T15:34:58;3.08;;;1.63;;
15526;SDS011;7865;50.918;4.510;2022-07-29T15:40:00;6.15;;;1.75;;
15526;SDS011;7865;50.918;4.510;2022-07-29T15:45:03;2.78;;;1.50;;
15526;SDS011;7865;50.918;4.510;2022-07-29T15:50:06;2.90;;;1.80;;
15526;SDS011;7865;50.918;4.510;2022-07-29T15:55:13;6.30;;;2.10;;
15526;SDS011;7865;50.918;4.510;2022-07-29T16:00:16;3.15;;;1.90;;
15526;SDS011;7865;50.918;4.510;2022-07-29T16:05:19;4.55;;;1.98;;
15526;SDS011;7865;50.918;4.510;2022-07-29T16:10:21;2.00;;;1.80;;
15526;SDS011;7865;50.918;4.510;2022-07-29T16:15:23;5.10;;;1.80;;
15526;SDS011;7865;50.918;4.510;2022-07-29T16:20:25;4.47;;;2.00;;
15526;SDS011;7865;50.918;4.510;2022-07-29T16:25:31;3.85;;;1.77;;
15526;SDS011;7865;50.918;4.510;2022-07-29T16:30:53;2.95;;;2.22;;
15526;SDS011;7865;50.918;4.510;2022-07-29T16:35:55;4.50;;;2.17;;
15526;SDS011;7865;50.918;4.510;2022-07-29T16:40:57;9.52;;;2.53;;
15526;SDS011;7865;50.918;4.510;2022-07-29T16:45:59;2.63;;;2.03;;
15526;SDS011;7865;50.918;4.510;2022-07-29T16:51:06;4.55;;;2.28;;
15526;SDS011;7865;50.918;4.510;2022-07-29T16:56:09;2.50;;;2.13;;
15526;SDS011;7865;50.918;4.510;2022-07-29T17:01:13;7.82;;;2.25;;
15526;SDS011;7865;50.918;4.510;2022-07-29T17:06:15;3.88;;;2.10;;
15526;SDS011;7865;50.918;4.510;2022-07-29T17:11:17;3.50;;;2.03;;
15526;SDS011;7865;50.918;4.510;2022-07-29T17:16:19;3.30;;;2.30;;
15526;SDS011;7865;50.918;4.510;2022-07-29T17:21:25;5.45;;;2.80;;
15526;SDS011;7865;50.918;4.510;2022-07-29T17:26:27;3.78;;;2.22;;
15526;SDS011;7865;50.918;4.510;2022-07-29T17:31:29;3.95;;;2.58;;
15526;SDS011;7865;50.918;4.510;2022-07-29T17:36:31;2.00;;;1.80;;
15526;SDS011;7865;50.918;4.510;2022-07-29T17:41:33;3.33;;;1.83;;
15526;SDS011;7865;50.918;4.510;2022-07-29T17:46:35;3.20;;;2.45;;
15526;SDS011;7865;50.918;4.510;2022-07-29T17:51:39;4.20;;;1.60;;
15526;SDS011;7865;50.918;4.510;2022-07-29T17:56:41;6.65;;;2.00;;
15526;SDS011;7865;50.918;4.510;2022-07-29T18:01:43;5.65;;;2.10;;
15526;SDS011;7865;50.918;4.510;2022-07-29T18:06:45;3.53;;;2.00;;
15526;SDS011;7865;50.918;4.510;2022-07-29T18:11:47;4.20;;;2.30;;
15526;SDS011;7865;50.918;4.510;2022-07-29T18:16:49;3.75;;;2.10;;
15526;SDS011;7865;50.918;4.510;2022-07-29T18:21:51;3.75;;;1.90;;
15526;SDS011;7865;50.918;4.510;2022-07-29T18:26:57;5.85;;;1.95;;
15526;SDS011;7865;50.918;4.510;2022-07-29T18:31:59;3.95;;;1.70;;
15526;SDS011;7865;50.918;4.510;2022-07-29T18:37:03;3.90;;;1.73;;
15526;SDS011;7865;50.918;4.510;2022-07-29T18:42:06;2.90;;;1.88;;
15526;SDS011;7865;50.918;4.510;2022-07-29T18:47:08;4.38;;;1.92;;
15526;SDS011;7865;50.918;4.510;2022-07-29T18:52:12;3.13;;;1.70;;
15526;SDS011;7865;50.918;4.510;2022-07-29T18:57:14;4.45;;;1.83;;
15526;SDS011;7865;50.918;4.510;2022-07-29T19:02:40;5.53;;;1.92;;
15526;SDS011;7865;50.918;4.510;2022-07-29T19:07:43;3.15;;;1.77;;
15526;SDS011;7865;50.918;4.510;2022-07-29T19:12:45;2.42;;;1.67;;
15526;SDS011;7865;50.918;4.510;2022-07-29T19:17:48;4.70;;;1.90;;
15526;SDS011;7865;50.918;4.510;2022-07-29T19:22:51;4.03;;;1.38;;
15526;SDS011;7865;50.918;4.510;2022-07-29T19:27:53;2.47;;;1.58;;
15526;SDS011;7865;50.918;4.510;2022-07-29T19:32:55;3.05;;;1.50;;
15526;SDS011;7865;50.918;4.510;2022-07-29T19:37:59;3.50;;;1.88;;
15526;SDS011;7865;50.918;4.510;2022-07-29T19:43:02;3.35;;;1.73;;
15526;SDS011;7865;50.918;4.510;2022-07-29T19:48:25;3.63;;;1.95;;
15526;SDS011;7865;50.918;4.510;2022-07-29T19:53:27;3.90;;;1.90;;
15526;SDS011;7865;50.918;4.510;2022-07-29T19:58:30;4.43;;;1.83;;
15526;SDS011;7865;50.918;4.510;2022-07-29T20:03:35;3.22;;;1.90;;
15526;SDS011;7865;50.918;4.510;2022-07-29T20:08:40;3.70;;;1.77;;
15526;SDS011;7865;50.918;4.510;2022-07-29T20:13:42;3.03;;;1.60;;
15526;SDS011;7865;50.918;4.510;2022-07-29T20:18:44;5.13;;;1.63;;
15526;SDS011;7865;50.918;4.510;2022-07-29T20:23:48;6.97;;;1.80;;
15526;SDS011;7865;50.918;4.510;2022-07-29T20:28:50;4.10;;;1.83;;
15526;SDS011;7865;50.918;4.510;2022-07-29T20:33:52;8.43;;;2.05;;
15526;SDS011;7865;50.918;4.510;2022-07-29T20:38:54;4.63;;;1.80;;
15526;SDS011;7865;50.918;4.510;2022-07-29T20:43:57;2.22;;;1.70;;
15526;SDS011;7865;50.918;4.510;2022-07-29T20:49:00;5.97;;;2.20;;
15526;SDS011;7865;50.918;4.510;2022-07-29T20:54:03;6.78;;;2.22;;
15526;SDS011;7865;50.918;4.510;2022-07-29T20:59:05;7.88;;;2.50;;
15526;SDS011;7865;50.918;4.510;2022-07-29T21:04:08;5.55;;;2.20;;
15526;SDS011;7865;50.918;4.510;2022-07-29T21:09:10;3.83;;;2.22;;
15526;SDS011;7865;50.918;4.510;2022-07-29T21:14:12;6.28;;;2.80;;
15526;SDS011;7865;50.918;4.510;2022-07-29T21:19:27;7.75;;;2.70;;
15526;SDS011;7865;50.918;4.510;2022-07-29T21:24:29;5.13;;;2.33;;
15526;SDS011;7865;50.918;4.510;2022-07-29T21:29:31;5.55;;;2.63;;
15526;SDS011;7865;50.918;4.510;2022-07-29T21:34:34;4.70;;;2.65;;
15526;SDS011;7865;50.918;4.510;2022-07-29T21:39:36;7.07;;;3.15;;
15526;SDS011;7865;50.918;4.510;2022-07-29T21:44:38;7.97;;;3.17;;
15526;SDS011;7865;50.918;4.510;2022-07-29T21:49:41;6.25;;;3.08;;
15526;SDS011;7865;50.918;4.510;2022-07-29T21:54:44;7.20;;;2.85;;
15526;SDS011;7865;50.918;4.510;2022-07-29T21:59:46;11.57;;;3.20;;
15526;SDS011;7865;50.918;4.510;2022-07-29T22:04:48;7.97;;;3.28;;
15526;SDS011;7865;50.918;4.510;2022-07-29T22:09:55;8.40;;;3.35;;
15526;SDS011;7865;50.918;4.510;2022-07-29T22:15:02;4.83;;;3.03;;
15526;SDS011;7865;50.918;4.510;2022-07-29T22:20:05;10.47;;;3.20;;
15526;SDS011;7865;50.918;4.510;2022-07-29T22:25:08;10.97;;;3.77;;
15526;SDS011;7865;50.918;4.510;2022-07-29T22:30:11;6.90;;;3.33;;
15526;SDS011;7865;50.918;4.510;2022-07-29T22:35:14;9.30;;;3.73;;
15526;SDS011;7865;50.918;4.510;2022-07-29T22:40:16;7.43;;;3.97;;
15526;SDS011;7865;50.918;4.510;2022-07-29T22:45:18;8.30;;;4.20;;
15526;SDS011;7865;50.918;4.510;2022-07-29T22:50:23;7.70;;;4.57;;
15526;SDS011;7865;50.918;4.510;2022-07-29T22:55:25;8.47;;;3.70;;
15526;SDS011;7865;50.918;4.510;2022-07-29T23:00:27;12.10;;;4.33;;
15526;SDS011;7865;50.918;4.510;2022-07-29T23:05:29;15.13;;;4.10;;
15526;SDS011;7865;50.918;4.510;2022-07-29T23:10:31;8.43;;;4.60;;
15526;SDS011;7865;50.918;4.510;2022-07-29T23:15:33;7.83;;;4.57;;
15526;SDS011;7865;50.918;4.510;2022-07-29T23:20:35;13.83;;;5.03;;
15526;SDS011;7865;50.918;4.510;2022-07-29T23:25:37;8.00;;;4.77;;
15526;SDS011;7865;50.918;4.510;2022-07-29T23:30:39;14.37;;;5.63;;
15526;SDS011;7865;50.918;4.510;2022-07-29T23:35:42;5.60;;;4.80;;
15526;SDS011;7865;50.918;4.510;2022-07-29T23:40:44;7.83;;;5.20;;
15526;SDS011;7865;50.918;4.510;2022-07-29T23:45:46;11.43;;;5.90;;
15526;SDS011;7865;50.918;4.510;2022-07-29T23:50:49;13.07;;;6.33;;
15526;SDS011;7865;50.918;4.510;2022-07-29T23:55:51;12.27;;;6.47;;
